sensor_id;sensor_type;location;lat;lon;timestamp;P1;durP1;ratioP1;P2;durP2;ratioP2
45909;SDS011;31622;55.416;37.840;2023-07-22T00:01:23;3.45;;;2.30;;
45909;SDS011;31622;55.416;37.840;2023-07-22T00:03:49;3.33;;;2.15;;
45909;SDS011;31622;55.416;37.840;2023-07-22T00:06:14;3.42;;;2.15;;
45909;SDS011;31622;55.416;37.840;2023-07-22T00:08:40;9.23;;;2.65;;
45909;SDS011;31622;55.416;37.840;2023-07-22T00:11:06;4.90;;;2.60;;
45909;SDS011;31622;55.416;37.840;2023-07-22T00:13:32;4.07;;;2.17;;
45909;SDS011;31622;55.416;37.840;2023-07-22T00:15:58;5.28;;;2.45;;
45909;SDS011;31622;55.416;37.840;2023-07-22T00:18:29;6.75;;;2.30;;
45909;SDS011;31622;55.416;37.840;2023-07-22T00:20:56;3.47;;;2.00;;
45909;SDS011;31622;55.416;37.840;2023-07-22T00:23:22;5.30;;;2.10;;
45909;SDS011;31622;55.416;37.840;2023-07-22T00:25:48;4.05;;;2.05;;
45909;SDS011;31622;55.416;37.840;2023-07-22T00:28:14;6.97;;;2.08;;
45909;SDS011;31622;55.416;37.840;2023-07-22T00:30:40;4.95;;;2.33;;
45909;SDS011;31622;55.416;37.840;2023-07-22T00:33:06;3.50;;;2.00;;
45909;SDS011;31622;55.416;37.840;2023-07-22T00:35:33;3.10;;;1.85;;
45909;SDS011;31622;55.416;37.840;2023-07-22T00:37:59;3.55;;;1.73;;
45909;SDS011;31622;55.416;37.840;2023-07-22T00:40:26;4.10;;;1.92;;
45909;SDS011;31622;55.416;37.840;2023-07-22T00:42:52;3.58;;;2.03;;
45909;SDS011;31622;55.416;37.840;2023-07-22T00:45:18;4.25;;;2.13;;
45909;SDS011;31622;55.416;37.840;2023-07-22T00:47:44;3.13;;;1.95;;
45909;SDS011;31622;55.416;37.840;2023-07-22T00:50:10;8.10;;;2.13;;
45909;SDS011;31622;55.416;37.840;2023-07-22T00:52:36;4.78;;;2.35;;
45909;SDS011;31622;55.416;37.840;2023-07-22T00:55:02;2.53;;;1.65;;
45909;SDS011;31622;55.416;37.840;2023-07-22T00:57:29;4.90;;;2.05;;
45909;SDS011;31622;55.416;37.840;2023-07-22T00:59:55;5.03;;;2.30;;
45909;SDS011;31622;55.416;37.840;2023-07-22T01:02:20;3.35;;;2.10;;
45909;SDS011;31622;55.416;37.840;2023-07-22T01:04:46;3.35;;;1.60;;
45909;SDS011;31622;55.416;37.840;2023-07-22T01:07:12;4.05;;;1.95;;
45909;SDS011;31622;55.416;37.840;2023-07-22T01:09:39;3.33;;;1.90;;
45909;SDS011;31622;55.416;37.840;2023-07-22T01:12:05;4.85;;;1.92;;
45909;SDS011;31622;55.416;37.840;2023-07-22T01:14:33;4.80;;;2.20;;
45909;SDS011;31622;55.416;37.840;2023-07-22T01:17:00;5.60;;;1.60;;
45909;SDS011;31622;55.416;37.840;2023-07-22T01:19:30;4.97;;;1.60;;
45909;SDS011;31622;55.416;37.840;2023-07-22T01:21:59;2.92;;;1.92;;
45909;SDS011;31622;55.416;37.840;2023-07-22T01:24:27;2.35;;;1.55;;
45909;SDS011;31622;55.416;37.840;2023-07-22T01:26:53;3.05;;;2.00;;
45909;SDS011;31622;55.416;37.840;2023-07-22T01:29:19;5.32;;;2.10;;
45909;SDS011;31622;55.416;37.840;2023-07-22T01:31:47;3.10;;;1.80;;
45909;SDS011;31622;55.416;37.840;2023-07-22T01:34:15;4.50;;;1.75;;
45909;SDS011;31622;55.416;37.840;2023-07-22T01:36:40;3.60;;;1.80;;
45909;SDS011;31622;55.416;37.840;2023-07-22T01:39:06;3.60;;;1.77;;
45909;SDS011;31622;55.416;37.840;2023-07-22T01:41:32;3.92;;;2.08;;
45909;SDS011;31622;55.416;37.840;2023-07-22T01:43:58;3.13;;;1.60;;
45909;SDS011;31622;55.416;37.840;2023-07-22T01:46:25;4.60;;;1.67;;
45909;SDS011;31622;55.416;37.840;2023-07-22T01:48:50;3.65;;;1.77;;
45909;SDS011;31622;55.416;37.840;2023-07-22T01:51:16;4.03;;;1.63;;
45909;SDS011;31622;55.416;37.840;2023-07-22T01:53:42;2.70;;;1.77;;
45909;SDS011;31622;55.416;37.840;2023-07-22T01:56:08;2.75;;;1.70;;
45909;SDS011;31622;55.416;37.840;2023-07-22T01:58:34;3.30;;;1.70;;
45909;SDS011;31622;55.416;37.840;2023-07-22T02:01:00;4.05;;;1.70;;
45909;SDS011;31622;55.416;37.840;2023-07-22T02:03:26;4.00;;;1.80;;
45909;SDS011;31622;55.416;37.840;2023-07-22T02:05:52;3.30;;;1.70;;
45909;SDS011;31622;55.416;37.840;2023-07-22T02:08:17;4.25;;;1.63;;
45909;SDS011;31622;55.416;37.840;2023-07-22T02:10:43;4.07;;;1.67;;
45909;SDS011;31622;55.416;37.840;2023-07-22T02:13:09;5.03;;;1.52;;
45909;SDS011;31622;55.416;37.840;2023-07-22T02:15:35;2.63;;;1.73;;
45909;SDS011;31622;55.416;37.840;2023-07-22T02:18:01;3.92;;;2.08;;
45909;SDS011;31622;55.416;37.840;2023-07-22T02:20:27;2.90;;;1.50;;
45909;SDS011;31622;55.416;37.840;2023-07-22T02:22:54;4.57;;;1.70;;
45909;SDS011;31622;55.416;37.840;2023-07-22T02:25:20;4.20;;;1.73;;
45909;SDS011;31622;55.416;37.840;2023-07-22T02:27:46;2.47;;;1.50;;
45909;SDS011;31622;55.416;37.840;2023-07-22T02:30:11;4.97;;;1.70;;
45909;SDS011;31622;55.416;37.840;2023-07-22T02:32:38;5.28;;;1.52;;
45909;SDS011;31622;55.416;37.840;2023-07-22T02:35:06;3.47;;;1.67;;
45909;SDS011;31622;55.416;37.840;2023-07-22T02:37:32;3.40;;;1.60;;
45909;SDS011;31622;55.416;37.840;2023-07-22T02:39:59;3.55;;;1.80;;
45909;SDS011;31622;55.416;37.840;2023-07-22T02:42:25;3.45;;;1.73;;
45909;SDS011;31622;55.416;37.840;2023-07-22T02:44:50;3.53;;;1.55;;
45909;SDS011;31622;55.416;37.840;2023-07-22T02:47:17;2.53;;;1.63;;
45909;SDS011;31622;55.416;37.840;2023-07-22T02:49:43;2.50;;;1.42;;
45909;SDS011;31622;55.416;37.840;2023-07-22T02:52:09;2.67;;;1.55;;
45909;SDS011;31622;55.416;37.840;2023-07-22T02:54:39;3.08;;;1.75;;
45909;SDS011;31622;55.416;37.840;2023-07-22T02:57:05;3.45;;;2.00;;
45909;SDS011;31622;55.416;37.840;2023-07-22T02:59:31;4.80;;;1.45;;
45909;SDS011;31622;55.416;37.840;2023-07-22T03:01:58;3.53;;;1.38;;
45909;SDS011;31622;55.416;37.840;2023-07-22T03:04:24;2.40;;;1.52;;
45909;SDS011;31622;55.416;37.840;2023-07-22T03:06:49;2.40;;;1.35;;
45909;SDS011;31622;55.416;37.840;2023-07-22T03:09:15;2.40;;;1.30;;
45909;SDS011;31622;55.416;37.840;2023-07-22T03:11:41;5.15;;;1.40;;
45909;SDS011;31622;55.416;37.840;2023-07-22T03:14:07;3.42;;;1.60;;
45909;SDS011;31622;55.416;37.840;2023-07-22T03:16:32;4.82;;;1.20;;
45909;SDS011;31622;55.416;37.840;2023-07-22T03:18:58;3.58;;;1.50;;
45909;SDS011;31622;55.416;37.840;2023-07-22T03:21:24;4.07;;;1.42;;
45909;SDS011;31622;55.416;37.840;2023-07-22T03:23:49;2.72;;;1.20;;
45909;SDS011;31622;55.416;37.840;2023-07-22T03:26:15;2.78;;;1.35;;
45909;SDS011;31622;55.416;37.840;2023-07-22T03:28:41;2.53;;;1.20;;
45909;SDS011;31622;55.416;37.840;2023-07-22T03:31:07;2.90;;;1.20;;
45909;SDS011;31622;55.416;37.840;2023-07-22T03:33:36;3.25;;;1.40;;
45909;SDS011;31622;55.416;37.840;2023-07-22T03:36:01;2.22;;;1.35;;
45909;SDS011;31622;55.416;37.840;2023-07-22T03:38:27;3.88;;;2.00;;
45909;SDS011;31622;55.416;37.840;2023-07-22T03:40:53;2.92;;;1.92;;
45909;SDS011;31622;55.416;37.840;2023-07-22T03:43:18;4.28;;;2.03;;
45909;SDS011;31622;55.416;37.840;2023-07-22T03:45:44;3.85;;;2.40;;
45909;SDS011;31622;55.416;37.840;2023-07-22T03:48:10;4.28;;;2.03;;
45909;SDS011;31622;55.416;37.840;2023-07-22T03:50:36;4.50;;;2.40;;
45909;SDS011;31622;55.416;37.840;2023-07-22T03:53:02;3.75;;;1.90;;
45909;SDS011;31622;55.416;37.840;2023-07-22T03:55:27;2.88;;;1.90;;
45909;SDS011;31622;55.416;37.840;2023-07-22T03:57:53;4.82;;;1.60;;
45909;SDS011;31622;55.416;37.840;2023-07-22T04:00:20;3.58;;;1.30;;
45909;SDS011;31622;55.416;37.840;2023-07-22T04:02:46;2.10;;;1.20;;
45909;SDS011;31622;55.416;37.840;2023-07-22T04:05:12;3.00;;;1.48;;
45909;SDS011;31622;55.416;37.840;2023-07-22T04:07:38;3.92;;;1.30;;
45909;SDS011;31622;55.416;37.840;2023-07-22T04:10:04;2.58;;;1.23;;
45909;SDS011;31622;55.416;37.840;2023-07-22T04:12:31;2.75;;;1.10;;
45909;SDS011;31622;55.416;37.840;2023-07-22T04:14:57;2.38;;;1.13;;
45909;SDS011;31622;55.416;37.840;2023-07-22T04:17:23;4.80;;;1.23;;
45909;SDS011;31622;55.416;37.840;2023-07-22T04:19:50;2.60;;;1.10;;
45909;SDS011;31622;55.416;37.840;2023-07-22T04:22:17;3.63;;;1.10;;
45909;SDS011;31622;55.416;37.840;2023-07-22T04:24:42;2.28;;;0.95;;
45909;SDS011;31622;55.416;37.840;2023-07-22T04:27:08;2.92;;;1.00;;
45909;SDS011;31622;55.416;37.840;2023-07-22T04:29:34;2.78;;;1.17;;
45909;SDS011;31622;55.416;37.840;2023-07-22T04:32:05;3.10;;;1.20;;
45909;SDS011;31622;55.416;37.840;2023-07-22T04:34:31;3.17;;;1.10;;
45909;SDS011;31622;55.416;37.840;2023-07-22T04:36:57;2.63;;;1.00;;
45909;SDS011;31622;55.416;37.840;2023-07-22T04:39:23;2.45;;;1.00;;
45909;SDS011;31622;55.416;37.840;2023-07-22T04:41:49;4.47;;;1.33;;
45909;SDS011;31622;55.416;37.840;2023-07-22T04:44:15;4.22;;;1.30;;
45909;SDS011;31622;55.416;37.840;2023-07-22T04:46:41;3.38;;;1.00;;
45909;SDS011;31622;55.416;37.840;2023-07-22T04:49:07;1.83;;;0.90;;
45909;SDS011;31622;55.416;37.840;2023-07-22T04:51:32;2.03;;;1.10;;
45909;SDS011;31622;55.416;37.840;2023-07-22T04:53:58;3.72;;;0.90;;
45909;SDS011;31622;55.416;37.840;2023-07-22T04:56:24;3.00;;;1.25;;
45909;SDS011;31622;55.416;37.840;2023-07-22T04:58:49;3.75;;;1.52;;
45909;SDS011;31622;55.416;37.840;2023-07-22T05:01:15;4.35;;;1.58;;
45909;SDS011;31622;55.416;37.840;2023-07-22T05:03:41;4.90;;;1.90;;
45909;SDS011;31622;55.416;37.840;2023-07-22T05:06:07;5.43;;;1.75;;
45909;SDS011;31622;55.416;37.840;2023-07-22T05:08:33;4.78;;;1.85;;
45909;SDS011;31622;55.416;37.840;2023-07-22T05:10:59;3.95;;;2.08;;
45909;SDS011;31622;55.416;37.840;2023-07-22T05:13:25;4.57;;;1.88;;
45909;SDS011;31622;55.416;37.840;2023-07-22T05:15:51;4.00;;;1.63;;
45909;SDS011;31622;55.416;37.840;2023-07-22T05:18:17;3.55;;;1.83;;
45909;SDS011;31622;55.416;37.840;2023-07-22T05:20:42;4.63;;;1.85;;
45909;SDS011;31622;55.416;37.840;2023-07-22T05:23:08;3.83;;;1.80;;
45909;SDS011;31622;55.416;37.840;2023-07-22T05:25:34;4.20;;;2.10;;
45909;SDS011;31622;55.416;37.840;2023-07-22T05:27:59;4.10;;;2.00;;
45909;SDS011;31622;55.416;37.840;2023-07-22T05:30:25;2.17;;;1.30;;
45909;SDS011;31622;55.416;37.840;2023-07-22T05:32:54;5.05;;;1.67;;
45909;SDS011;31622;55.416;37.840;2023-07-22T05:35:19;2.50;;;1.30;;
45909;SDS011;31622;55.416;37.840;2023-07-22T05:37:45;4.10;;;1.67;;
45909;SDS011;31622;55.416;37.840;2023-07-22T05:40:11;2.85;;;1.15;;
45909;SDS011;31622;55.416;37.840;2023-07-22T05:42:36;2.70;;;1.25;;
45909;SDS011;31622;55.416;37.840;2023-07-22T05:45:02;2.55;;;1.20;;
45909;SDS011;31622;55.416;37.840;2023-07-22T05:47:28;2.33;;;1.10;;
45909;SDS011;31622;55.416;37.840;2023-07-22T05:49:54;3.42;;;1.25;;
45909;SDS011;31622;55.416;37.840;2023-07-22T05:52:20;3.92;;;1.30;;
45909;SDS011;31622;55.416;37.840;2023-07-22T05:54:45;2.85;;;1.30;;
45909;SDS011;31622;55.416;37.840;2023-07-22T05:57:11;2.10;;;1.00;;
45909;SDS011;31622;55.416;37.840;2023-07-22T05:59:37;2.03;;;1.00;;
45909;SDS011;31622;55.416;37.840;2023-07-22T06:02:03;3.60;;;1.50;;
45909;SDS011;31622;55.416;37.840;2023-07-22T06:04:29;2.28;;;1.08;;
45909;SDS011;31622;55.416;37.840;2023-07-22T06:06:55;2.53;;;1.60;;
45909;SDS011;31622;55.416;37.840;2023-07-22T06:09:20;2.50;;;1.40;;
45909;SDS011;31622;55.416;37.840;2023-07-22T06:11:47;2.10;;;1.50;;
45909;SDS011;31622;55.416;37.840;2023-07-22T06:14:12;2.63;;;1.38;;
45909;SDS011;31622;55.416;37.840;2023-07-22T06:16:38;2.65;;;1.30;;
45909;SDS011;31622;55.416;37.840;2023-07-22T06:19:04;3.28;;;1.50;;
45909;SDS011;31622;55.416;37.840;2023-07-22T06:21:30;4.50;;;1.45;;
45909;SDS011;31622;55.416;37.840;2023-07-22T06:23:56;3.17;;;1.33;;
45909;SDS011;31622;55.416;37.840;2023-07-22T06:26:21;8.50;;;1.75;;
45909;SDS011;31622;55.416;37.840;2023-07-22T06:28:47;4.60;;;2.00;;
45909;SDS011;31622;55.416;37.840;2023-07-22T06:31:13;6.25;;;1.88;;
45909;SDS011;31622;55.416;37.840;2023-07-22T06:33:39;3.72;;;1.67;;
45909;SDS011;31622;55.416;37.840;2023-07-22T06:36:04;7.90;;;2.20;;
45909;SDS011;31622;55.416;37.840;2023-07-22T06:38:30;5.78;;;1.70;;
45909;SDS011;31622;55.416;37.840;2023-07-22T06:40:56;5.45;;;2.00;;
45909;SDS011;31622;55.416;37.840;2023-07-22T06:43:22;4.13;;;1.63;;
45909;SDS011;31622;55.416;37.840;2023-07-22T06:45:48;3.55;;;1.88;;
45909;SDS011;31622;55.416;37.840;2023-07-22T06:48:14;2.33;;;1.42;;
45909;SDS011;31622;55.416;37.840;2023-07-22T06:50:39;6.45;;;1.20;;
45909;SDS011;31622;55.416;37.840;2023-07-22T06:53:05;4.00;;;1.45;;
45909;SDS011;31622;55.416;37.840;2023-07-22T06:55:31;3.08;;;1.42;;
45909;SDS011;31622;55.416;37.840;2023-07-22T06:57:56;3.15;;;1.40;;
45909;SDS011;31622;55.416;37.840;2023-07-22T07:00:22;4.45;;;1.60;;
45909;SDS011;31622;55.416;37.840;2023-07-22T07:02:48;2.78;;;1.33;;
45909;SDS011;31622;55.416;37.840;2023-07-22T07:05:13;3.05;;;1.50;;
45909;SDS011;31622;55.416;37.840;2023-07-22T07:07:41;2.35;;;1.10;;
45909;SDS011;31622;55.416;37.840;2023-07-22T07:10:07;2.05;;;1.30;;
45909;SDS011;31622;55.416;37.840;2023-07-22T07:12:33;2.45;;;1.05;;
45909;SDS011;31622;55.416;37.840;2023-07-22T07:14:58;2.03;;;1.30;;
45909;SDS011;31622;55.416;37.840;2023-07-22T07:17:25;2.75;;;1.20;;
45909;SDS011;31622;55.416;37.840;2023-07-22T07:19:50;1.95;;;1.10;;
45909;SDS011;31622;55.416;37.840;2023-07-22T07:22:16;4.25;;;1.33;;
45909;SDS011;31622;55.416;37.840;2023-07-22T07:24:42;2.33;;;1.23;;
45909;SDS011;31622;55.416;37.840;2023-07-22T07:27:07;3.03;;;1.10;;
45909;SDS011;31622;55.416;37.840;2023-07-22T07:29:33;3.35;;;1.30;;
45909;SDS011;31622;55.416;37.840;2023-07-22T07:31:58;3.97;;;1.48;;
45909;SDS011;31622;55.416;37.840;2023-07-22T07:34:24;2.00;;;1.00;;
45909;SDS011;31622;55.416;37.840;2023-07-22T07:36:50;14.68;;;1.83;;
45909;SDS011;31622;55.416;37.840;2023-07-22T07:39:16;20.30;;;1.80;;
45909;SDS011;31622;55.416;37.840;2023-07-22T07:41:41;17.05;;;1.77;;
45909;SDS011;31622;55.416;37.840;2023-07-22T07:44:07;13.93;;;1.58;;
45909;SDS011;31622;55.416;37.840;2023-07-22T07:46:33;8.02;;;1.60;;
45909;SDS011;31622;55.416;37.840;2023-07-22T07:48:59;12.50;;;1.40;;
45909;SDS011;31622;55.416;37.840;2023-07-22T07:51:29;3.42;;;1.20;;
45909;SDS011;31622;55.416;37.840;2023-07-22T07:53:57;6.68;;;1.45;;
45909;SDS011;31622;55.416;37.840;2023-07-22T07:56:23;6.78;;;1.08;;
45909;SDS011;31622;55.416;37.840;2023-07-22T07:58:50;4.60;;;1.13;;
45909;SDS011;31622;55.416;37.840;2023-07-22T08:01:17;4.57;;;1.10;;
45909;SDS011;31622;55.416;37.840;2023-07-22T08:03:43;3.35;;;1.13;;
45909;SDS011;31622;55.416;37.840;2023-07-22T08:06:09;2.40;;;1.08;;
45909;SDS011;31622;55.416;37.840;2023-07-22T08:08:35;6.10;;;1.20;;
45909;SDS011;31622;55.416;37.840;2023-07-22T08:11:03;2.80;;;1.02;;
45909;SDS011;31622;55.416;37.840;2023-07-22T08:13:36;1.63;;;0.60;;
45909;SDS011;31622;55.416;37.840;2023-07-22T08:16:03;2.28;;;1.00;;
45909;SDS011;31622;55.416;37.840;2023-07-22T08:18:30;4.90;;;1.13;;
45909;SDS011;31622;55.416;37.840;2023-07-22T08:20:57;3.25;;;1.20;;
45909;SDS011;31622;55.416;37.840;2023-07-22T08:23:23;2.17;;;1.00;;
45909;SDS011;31622;55.416;37.840;2023-07-22T08:25:49;2.67;;;1.10;;
45909;SDS011;31622;55.416;37.840;2023-07-22T08:28:15;1.90;;;1.17;;
45909;SDS011;31622;55.416;37.840;2023-07-22T08:30:41;2.05;;;1.10;;
45909;SDS011;31622;55.416;37.840;2023-07-22T08:33:08;3.88;;;1.30;;
45909;SDS011;31622;55.416;37.840;2023-07-22T08:35:38;2.28;;;1.00;;
45909;SDS011;31622;55.416;37.840;2023-07-22T08:38:04;3.35;;;1.25;;
45909;SDS011;31622;55.416;37.840;2023-07-22T08:40:37;2.80;;;1.30;;
45909;SDS011;31622;55.416;37.840;2023-07-22T08:43:04;3.40;;;1.08;;
45909;SDS011;31622;55.416;37.840;2023-07-22T08:45:31;2.63;;;1.48;;
45909;SDS011;31622;55.416;37.840;2023-07-22T08:47:59;3.28;;;1.40;;
45909;SDS011;31622;55.416;37.840;2023-07-22T08:50:33;1.88;;;1.10;;
45909;SDS011;31622;55.416;37.840;2023-07-22T08:53:00;2.40;;;1.35;;
45909;SDS011;31622;55.416;37.840;2023-07-22T08:55:26;2.45;;;1.13;;
45909;SDS011;31622;55.416;37.840;2023-07-22T08:57:52;2.83;;;1.25;;
45909;SDS011;31622;55.416;37.840;2023-07-22T09:00:18;4.20;;;1.17;;
45909;SDS011;31622;55.416;37.840;2023-07-22T09:02:44;4.22;;;1.25;;
45909;SDS011;31622;55.416;37.840;2023-07-22T09:05:11;3.05;;;1.10;;
45909;SDS011;31622;55.416;37.840;2023-07-22T09:07:37;3.67;;;1.17;;
45909;SDS011;31622;55.416;37.840;2023-07-22T09:10:04;4.22;;;1.23;;
45909;SDS011;31622;55.416;37.840;2023-07-22T09:12:33;7.60;;;1.40;;
45909;SDS011;31622;55.416;37.840;2023-07-22T09:15:09;3.50;;;1.23;;
45909;SDS011;31622;55.416;37.840;2023-07-22T09:17:36;3.23;;;1.20;;
45909;SDS011;31622;55.416;37.840;2023-07-22T09:20:03;2.10;;;1.10;;
45909;SDS011;31622;55.416;37.840;2023-07-22T09:22:31;2.00;;;0.93;;
45909;SDS011;31622;55.416;37.840;2023-07-22T09:27:46;4.32;;;1.20;;
45909;SDS011;31622;55.416;37.840;2023-07-22T09:30:22;1.70;;;1.00;;
45909;SDS011;31622;55.416;37.840;2023-07-22T09:32:51;5.25;;;1.10;;
45909;SDS011;31622;55.416;37.840;2023-07-22T09:35:18;4.00;;;1.20;;
45909;SDS011;31622;55.416;37.840;2023-07-22T09:37:44;1.88;;;1.02;;
45909;SDS011;31622;55.416;37.840;2023-07-22T09:40:20;2.40;;;1.10;;
45909;SDS011;31622;55.416;37.840;2023-07-22T09:42:56;2.50;;;1.20;;
45909;SDS011;31622;55.416;37.840;2023-07-22T09:45:24;2.03;;;0.90;;
45909;SDS011;31622;55.416;37.840;2023-07-22T09:47:51;2.95;;;1.10;;
45909;SDS011;31622;55.416;37.840;2023-07-22T09:50:21;3.60;;;1.00;;
45909;SDS011;31622;55.416;37.840;2023-07-22T09:52:51;2.28;;;1.10;;
45909;SDS011;31622;55.416;37.840;2023-07-22T09:55:19;3.15;;;1.42;;
45909;SDS011;31622;55.416;37.840;2023-07-22T09:57:46;2.78;;;1.27;;
45909;SDS011;31622;55.416;37.840;2023-07-22T10:00:15;2.72;;;1.17;;
45909;SDS011;31622;55.416;37.840;2023-07-22T10:02:42;2.58;;;1.20;;
45909;SDS011;31622;55.416;37.840;2023-07-22T10:05:14;2.13;;;1.20;;
45909;SDS011;31622;55.416;37.840;2023-07-22T10:08:02;4.22;;;1.38;;
45909;SDS011;31622;55.416;37.840;2023-07-22T10:10:31;3.25;;;1.40;;
45909;SDS011;31622;55.416;37.840;2023-07-22T10:12:58;2.10;;;1.10;;
45909;SDS011;31622;55.416;37.840;2023-07-22T10:15:25;1.98;;;1.00;;
45909;SDS011;31622;55.416;37.840;2023-07-22T10:17:53;1.80;;;1.13;;
45909;SDS011;31622;55.416;37.840;2023-07-22T10:20:20;2.88;;;1.35;;
45909;SDS011;31622;55.416;37.840;2023-07-22T10:22:47;2.25;;;1.00;;
45909;SDS011;31622;55.416;37.840;2023-07-22T10:25:19;2.95;;;1.10;;
45909;SDS011;31622;55.416;37.840;2023-07-22T10:27:46;2.00;;;1.10;;
45909;SDS011;31622;55.416;37.840;2023-07-22T10:30:13;2.20;;;1.30;;
45909;SDS011;31622;55.416;37.840;2023-07-22T10:35:17;1.77;;;1.13;;
45909;SDS011;31622;55.416;37.840;2023-07-22T10:37:48;2.40;;;1.50;;
45909;SDS011;31622;55.416;37.840;2023-07-22T10:40:18;2.70;;;1.60;;
45909;SDS011;31622;55.416;37.840;2023-07-22T10:42:58;2.90;;;1.52;;
45909;SDS011;31622;55.416;37.840;2023-07-22T10:45:31;2.95;;;1.42;;
45909;SDS011;31622;55.416;37.840;2023-07-22T10:48:00;3.22;;;1.27;;
45909;SDS011;31622;55.416;37.840;2023-07-22T10:50:52;2.85;;;1.50;;
45909;SDS011;31622;55.416;37.840;2023-07-22T10:53:20;2.03;;;1.20;;
45909;SDS011;31622;55.416;37.840;2023-07-22T10:58:31;2.03;;;1.05;;
45909;SDS011;31622;55.416;37.840;2023-07-22T11:01:40;2.00;;;1.10;;
45909;SDS011;31622;55.416;37.840;2023-07-22T11:06:36;2.95;;;1.40;;
45909;SDS011;31622;55.416;37.840;2023-07-22T11:09:03;1.73;;;0.90;;
45909;SDS011;31622;55.416;37.840;2023-07-22T11:11:35;2.75;;;0.98;;
45909;SDS011;31622;55.416;37.840;2023-07-22T11:14:15;1.95;;;1.00;;
45909;SDS011;31622;55.416;37.840;2023-07-22T11:16:43;1.77;;;0.90;;
45909;SDS011;31622;55.416;37.840;2023-07-22T11:19:10;2.25;;;0.93;;
45909;SDS011;31622;55.416;37.840;2023-07-22T11:21:36;2.58;;;1.05;;
45909;SDS011;31622;55.416;37.840;2023-07-22T11:24:05;3.45;;;1.20;;
45909;SDS011;31622;55.416;37.840;2023-07-22T11:26:32;1.73;;;1.00;;
45909;SDS011;31622;55.416;37.840;2023-07-22T11:29:05;4.10;;;1.45;;
45909;SDS011;31622;55.416;37.840;2023-07-22T11:31:32;2.25;;;1.42;;
45909;SDS011;31622;55.416;37.840;2023-07-22T11:34:02;3.42;;;1.20;;
45909;SDS011;31622;55.416;37.840;2023-07-22T11:36:29;2.10;;;1.10;;
45909;SDS011;31622;55.416;37.840;2023-07-22T11:39:05;1.60;;;0.93;;
45909;SDS011;31622;55.416;37.840;2023-07-22T11:41:31;3.70;;;1.23;;
45909;SDS011;31622;55.416;37.840;2023-07-22T11:43:58;3.83;;;1.02;;
45909;SDS011;31622;55.416;37.840;2023-07-22T11:46:28;2.38;;;1.00;;
45909;SDS011;31622;55.416;37.840;2023-07-22T11:48:54;1.60;;;0.77;;
45909;SDS011;31622;55.416;37.840;2023-07-22T11:51:21;2.88;;;1.13;;
45909;SDS011;31622;55.416;37.840;2023-07-22T11:53:53;2.67;;;1.50;;
45909;SDS011;31622;55.416;37.840;2023-07-22T11:56:26;3.47;;;1.30;;
45909;SDS011;31622;55.416;37.840;2023-07-22T11:58:54;2.15;;;1.10;;
45909;SDS011;31622;55.416;37.840;2023-07-22T12:01:20;2.58;;;1.17;;
45909;SDS011;31622;55.416;37.840;2023-07-22T12:03:46;2.08;;;1.25;;
45909;SDS011;31622;55.416;37.840;2023-07-22T12:06:13;2.05;;;1.10;;
45909;SDS011;31622;55.416;37.840;2023-07-22T12:08:43;1.83;;;1.00;;
45909;SDS011;31622;55.416;37.840;2023-07-22T12:11:16;1.67;;;1.10;;
45909;SDS011;31622;55.416;37.840;2023-07-22T12:13:43;2.38;;;1.00;;
45909;SDS011;31622;55.416;37.840;2023-07-22T12:16:24;1.88;;;0.98;;
45909;SDS011;31622;55.416;37.840;2023-07-22T12:18:50;2.20;;;0.90;;
45909;SDS011;31622;55.416;37.840;2023-07-22T12:21:15;2.00;;;1.20;;
45909;SDS011;31622;55.416;37.840;2023-07-22T12:23:42;2.30;;;1.23;;
45909;SDS011;31622;55.416;37.840;2023-07-22T12:26:08;2.90;;;1.00;;
45909;SDS011;31622;55.416;37.840;2023-07-22T12:28:34;2.70;;;1.23;;
45909;SDS011;31622;55.416;37.840;2023-07-22T12:31:00;3.70;;;1.00;;
45909;SDS011;31622;55.416;37.840;2023-07-22T12:33:25;5.22;;;1.10;;
45909;SDS011;31622;55.416;37.840;2023-07-22T12:35:55;6.03;;;1.10;;
45909;SDS011;31622;55.416;37.840;2023-07-22T12:38:21;1.95;;;1.08;;
45909;SDS011;31622;55.416;37.840;2023-07-22T12:40:47;5.22;;;1.35;;
45909;SDS011;31622;55.416;37.840;2023-07-22T12:43:13;4.90;;;1.13;;
45909;SDS011;31622;55.416;37.840;2023-07-22T12:45:39;4.55;;;1.10;;
45909;SDS011;31622;55.416;37.840;2023-07-22T12:48:04;5.80;;;1.25;;
45909;SDS011;31622;55.416;37.840;2023-07-22T12:50:31;3.88;;;1.13;;
45909;SDS011;31622;55.416;37.840;2023-07-22T12:52:57;4.55;;;1.42;;
45909;SDS011;31622;55.416;37.840;2023-07-22T12:55:23;5.40;;;2.00;;
45909;SDS011;31622;55.416;37.840;2023-07-22T12:57:49;5.13;;;2.03;;
45909;SDS011;31622;55.416;37.840;2023-07-22T13:00:15;5.00;;;2.17;;
45909;SDS011;31622;55.416;37.840;2023-07-22T13:02:41;3.92;;;2.05;;
45909;SDS011;31622;55.416;37.840;2023-07-22T13:05:06;4.65;;;1.80;;
45909;SDS011;31622;55.416;37.840;2023-07-22T13:07:32;4.82;;;1.50;;
45909;SDS011;31622;55.416;37.840;2023-07-22T13:09:58;4.50;;;1.63;;
45909;SDS011;31622;55.416;37.840;2023-07-22T13:12:26;2.80;;;1.60;;
45909;SDS011;31622;55.416;37.840;2023-07-22T13:14:52;6.03;;;1.58;;
45909;SDS011;31622;55.416;37.840;2023-07-22T13:17:18;3.38;;;1.52;;
45909;SDS011;31622;55.416;37.840;2023-07-22T13:19:43;4.88;;;1.48;;
45909;SDS011;31622;55.416;37.840;2023-07-22T13:22:09;2.75;;;1.63;;
45909;SDS011;31622;55.416;37.840;2023-07-22T13:24:35;2.47;;;1.60;;
45909;SDS011;31622;55.416;37.840;2023-07-22T13:27:00;2.55;;;1.50;;
45909;SDS011;31622;55.416;37.840;2023-07-22T13:29:26;3.50;;;1.70;;
45909;SDS011;31622;55.416;37.840;2023-07-22T13:31:53;2.92;;;1.30;;
45909;SDS011;31622;55.416;37.840;2023-07-22T13:34:19;3.28;;;1.67;;
45909;SDS011;31622;55.416;37.840;2023-07-22T13:36:45;24.33;;;5.95;;
45909;SDS011;31622;55.416;37.840;2023-07-22T13:39:11;19.00;;;7.05;;
45909;SDS011;31622;55.416;37.840;2023-07-22T13:41:36;39.47;;;11.02;;
45909;SDS011;31622;55.416;37.840;2023-07-22T13:44:02;28.55;;;9.80;;
45909;SDS011;31622;55.416;37.840;2023-07-22T13:46:28;28.90;;;10.32;;
45909;SDS011;31622;55.416;37.840;2023-07-22T13:48:54;36.80;;;11.57;;
45909;SDS011;31622;55.416;37.840;2023-07-22T13:51:19;32.60;;;11.10;;
45909;SDS011;31622;55.416;37.840;2023-07-22T13:53:45;27.35;;;10.73;;
45909;SDS011;31622;55.416;37.840;2023-07-22T13:56:11;23.58;;;9.20;;
45909;SDS011;31622;55.416;37.840;2023-07-22T13:58:36;26.65;;;9.45;;
45909;SDS011;31622;55.416;37.840;2023-07-22T14:01:02;25.38;;;9.07;;
45909;SDS011;31622;55.416;37.840;2023-07-22T14:03:28;22.33;;;9.45;;
45909;SDS011;31622;55.416;37.840;2023-07-22T14:05:54;21.13;;;7.70;;
45909;SDS011;31622;55.416;37.840;2023-07-22T14:08:19;19.73;;;6.43;;
45909;SDS011;31622;55.416;37.840;2023-07-22T14:10:45;18.05;;;6.22;;
45909;SDS011;31622;55.416;37.840;2023-07-22T14:13:11;15.93;;;6.63;;
45909;SDS011;31622;55.416;37.840;2023-07-22T14:15:36;13.77;;;5.05;;
45909;SDS011;31622;55.416;37.840;2023-07-22T14:18:02;15.73;;;5.97;;
45909;SDS011;31622;55.416;37.840;2023-07-22T14:20:28;11.68;;;4.50;;
45909;SDS011;31622;55.416;37.840;2023-07-22T14:22:55;10.27;;;4.50;;
45909;SDS011;31622;55.416;37.840;2023-07-22T14:25:22;11.57;;;4.00;;
45909;SDS011;31622;55.416;37.840;2023-07-22T14:27:48;8.30;;;3.35;;
45909;SDS011;31622;55.416;37.840;2023-07-22T14:30:13;8.60;;;3.58;;
45909;SDS011;31622;55.416;37.840;2023-07-22T14:32:40;8.05;;;3.60;;
45909;SDS011;31622;55.416;37.840;2023-07-22T14:35:05;7.95;;;3.20;;
45909;SDS011;31622;55.416;37.840;2023-07-22T14:37:31;8.13;;;3.05;;
45909;SDS011;31622;55.416;37.840;2023-07-22T14:39:57;7.20;;;3.40;;
45909;SDS011;31622;55.416;37.840;2023-07-22T14:42:23;5.93;;;2.65;;